createdAt,value
2022-10-17T00:01:14.673Z,101685.06
2022-10-17T00:03:41.256Z,101682.81
2022-10-17T00:06:11.219Z,101670.38
2022-10-17T00:08:40.806Z,101664.72
2022-10-17T00:11:20.403Z,101672.16
2022-10-17T00:13:48.770Z,101666.91
2022-10-17T00:16:22.864Z,101669.38
2022-10-17T00:18:49.620Z,101663.38
2022-10-17T00:21:18.171Z,101660.28
2022-10-17T00:23:45.285Z,101658.19
2022-10-17T00:26:12.099Z,101648.44
2022-10-17T00:28:38.805Z,101645.47
2022-10-17T00:31:07.222Z,101653.31
2022-10-17T00:33:35.543Z,101652.13
2022-10-17T00:36:14.147Z,101650.59
2022-10-17T00:38:47.265Z,101659.22
2022-10-17T00:41:16.780Z,101661.50
2022-10-17T00:43:52.565Z,101663.66
2022-10-17T00:46:20.756Z,101655.00
2022-10-17T00:48:52.510Z,101648.75
2022-10-17T00:51:26.926Z,101644.94
2022-10-17T00:53:53.634Z,101631.00
2022-10-17T00:56:21.331Z,101632.97
2022-10-17T00:58:48.864Z,101637.50
2022-10-17T01:01:15.841Z,101635.97
2022-10-17T01:03:43.340Z,101634.06
2022-10-17T01:06:10.098Z,101629.91
2022-10-17T01:08:36.715Z,101622.41
2022-10-17T01:11:27.491Z,101627.16
2022-10-17T01:14:29.492Z,101634.88
2022-10-17T01:16:55.925Z,101636.34
2022-10-17T01:20:08.149Z,101618.69
2022-10-17T01:22:43.985Z,101617.94
2022-10-17T01:25:52.712Z,101615.75
2022-10-17T01:28:39.097Z,101610.41
2022-10-17T01:31:16.572Z,101608.56
2022-10-17T01:34:20.719Z,101619.13
2022-10-17T01:37:02.298Z,101620.47
2022-10-17T01:39:48.294Z,101629.50
2022-10-17T01:42:20.058Z,101629.84
2022-10-17T01:44:57.952Z,101617.94
2022-10-17T01:47:31.623Z,101625.50
2022-10-17T01:50:07.627Z,101619.44
2022-10-17T01:52:40.141Z,101623.50
2022-10-17T01:55:11.767Z,101606.31
2022-10-17T01:57:41.607Z,101601.13
2022-10-17T02:00:17.144Z,101597.00
2022-10-17T02:02:46.308Z,101600.38
2022-10-17T02:05:13.048Z,101586.47
2022-10-17T02:07:41.940Z,101585.44
2022-10-17T02:10:19.023Z,101594.38
2022-10-17T02:12:53.260Z,101591.75
2022-10-17T02:15:59.427Z,101599.59
2022-10-17T02:18:40.072Z,101594.03
2022-10-17T02:21:22.871Z,101596.84
2022-10-17T02:24:13.130Z,101586.03
2022-10-17T02:26:48.102Z,101582.72
2022-10-17T02:29:47.929Z,101585.69
2022-10-17T02:32:35.818Z,101580.72
2022-10-17T02:35:05.546Z,101585.09
2022-10-17T02:37:33.442Z,101575.81
2022-10-17T02:40:02.259Z,101570.47
2022-10-17T02:42:29.887Z,101574.72
2022-10-17T02:45:01.075Z,101577.72
2022-10-17T02:47:33.520Z,101577.75
2022-10-17T02:50:00.169Z,101578.16
2022-10-17T02:52:27.049Z,101588.47
2022-10-17T02:55:16.747Z,101596.81
2022-10-17T02:57:50.736Z,101592.09
2022-10-17T03:00:19.175Z,101586.72
2022-10-17T03:02:48.823Z,101592.00
2022-10-17T03:05:24.529Z,101591.66
2022-10-17T03:07:51.251Z,101587.03
2022-10-17T03:10:17.894Z,101591.25
2022-10-17T03:12:44.749Z,101598.00
2022-10-17T03:15:11.994Z,101599.78
2022-10-17T03:17:39.266Z,101589.56
2022-10-17T03:20:07.019Z,101591.53
2022-10-17T03:22:37.775Z,101593.44
2022-10-17T03:25:08.580Z,101600.31
2022-10-17T03:27:35.125Z,101591.19
2022-10-17T03:30:01.675Z,101590.91
2022-10-17T03:32:28.380Z,101593.38
2022-10-17T03:34:54.919Z,101592.69
2022-10-17T03:37:21.866Z,101596.16
2022-10-17T03:39:48.353Z,101605.38
2022-10-17T03:42:14.902Z,101600.72
2022-10-17T03:44:41.498Z,101607.28
2022-10-17T03:47:10.447Z,101603.06
2022-10-17T03:49:39.949Z,101611.50
2022-10-17T03:52:06.650Z,101607.91
2022-10-17T03:54:33.391Z,101611.09
2022-10-17T03:57:00.272Z,101612.22
2022-10-17T03:59:26.893Z,101593.97
2022-10-17T04:01:53.676Z,101592.84
2022-10-17T04:04:20.321Z,101583.06
2022-10-17T04:06:46.954Z,101587.19
2022-10-17T04:09:13.590Z,101593.28
2022-10-17T04:11:40.399Z,101604.63
2022-10-17T04:14:07.089Z,101613.28
2022-10-17T04:16:33.618Z,101617.19
2022-10-17T04:19:00.592Z,101623.34
2022-10-17T04:21:29.048Z,101621.31
2022-10-17T04:23:58.131Z,101619.31
2022-10-17T04:26:25.894Z,101617.09
2022-10-17T04:28:52.851Z,101610.00
2022-10-17T04:31:19.747Z,101616.94
2022-10-17T04:33:50.653Z,101627.06
2022-10-17T04:36:19.662Z,101623.09
2022-10-17T04:38:46.945Z,101629.50
2022-10-17T04:41:16.030Z,101637.94
2022-10-17T04:43:45.588Z,101635.50
2022-10-17T04:46:15.728Z,101642.59
2022-10-17T04:48:42.531Z,101642.00
2022-10-17T04:51:13.163Z,101647.22
2022-10-17T04:53:43.908Z,101655.69
2022-10-17T04:56:13.586Z,101649.03
2022-10-17T04:58:43.421Z,101654.69
2022-10-17T05:01:13.415Z,101655.94
2022-10-17T05:03:40.710Z,101657.59
2022-10-17T05:06:12.864Z,101657.31
2022-10-17T05:08:39.801Z,101652.50
2022-10-17T05:11:16.577Z,101661.50
2022-10-17T05:13:43.140Z,101649.34
2022-10-17T05:16:09.921Z,101655.28
2022-10-17T05:18:36.733Z,101647.06
2022-10-17T05:21:04.462Z,101654.47
2022-10-17T05:23:31.148Z,101654.69
2022-10-17T05:25:57.835Z,101651.72
2022-10-17T05:28:24.373Z,101649.78
2022-10-17T05:30:50.951Z,101654.34
2022-10-17T05:33:17.465Z,101665.13
2022-10-17T05:35:44.200Z,101659.88
2022-10-17T05:38:10.996Z,101668.09
2022-10-17T05:40:39.401Z,101676.38
2022-10-17T05:43:06.057Z,101669.84
2022-10-17T05:45:32.576Z,101667.75
2022-10-17T05:47:59.137Z,101663.34
2022-10-17T05:50:25.701Z,101654.31
2022-10-17T05:52:55.815Z,101668.00
2022-10-17T05:55:23.359Z,101670.78
2022-10-17T05:57:52.635Z,101670.13
2022-10-17T06:00:19.940Z,101662.16
2022-10-17T06:02:49.344Z,101660.13
2022-10-17T06:05:16.329Z,101672.66
2022-10-17T06:07:43.284Z,101669.03
2022-10-17T06:10:12.409Z,101670.13
2022-10-17T06:12:39.626Z,101672.94
2022-10-17T06:15:06.752Z,101675.38
2022-10-17T06:17:33.245Z,101666.34
2022-10-17T06:19:59.741Z,101665.91
2022-10-17T06:22:26.467Z,101667.06
2022-10-17T06:24:53.835Z,101680.94
2022-10-17T06:27:20.789Z,101680.50
2022-10-17T06:29:48.271Z,101681.88
2022-10-17T06:32:15.271Z,101690.03
2022-10-17T06:34:42.110Z,101696.91
2022-10-17T06:37:08.712Z,101711.03
2022-10-17T06:39:36.129Z,101697.41
2022-10-17T06:42:03.723Z,101688.47
2022-10-17T06:44:31.789Z,101698.66
2022-10-17T06:46:59.748Z,101711.41
2022-10-17T06:49:27.227Z,101710.59
2022-10-17T06:51:54.358Z,101718.38
2022-10-17T06:54:20.977Z,101717.84
2022-10-17T06:56:47.543Z,101720.03
2022-10-17T06:59:15.829Z,101723.06
2022-10-17T07:01:46.181Z,101725.72
2022-10-17T07:04:14.161Z,101735.41
2022-10-17T07:06:40.823Z,101731.47
2022-10-17T07:09:08.239Z,101732.66
2022-10-17T07:11:41.797Z,101731.03
2022-10-17T07:14:08.466Z,101745.00
2022-10-17T07:16:35.032Z,101746.75
2022-10-17T07:19:01.691Z,101753.91
2022-10-17T07:21:29.152Z,101749.72
2022-10-17T07:23:55.820Z,101750.81
2022-10-17T07:26:22.786Z,101734.56
2022-10-17T07:28:53.147Z,101728.22
2022-10-17T07:31:22.465Z,101729.66
2022-10-17T07:33:49.432Z,101746.63
2022-10-17T07:36:16.728Z,101743.41
2022-10-17T07:38:43.670Z,101754.84
2022-10-17T07:41:19.298Z,101751.41
2022-10-17T07:43:48.543Z,101754.31
2022-10-17T07:46:15.486Z,101757.41
2022-10-17T07:48:42.165Z,101778.38
2022-10-17T07:51:09.927Z,101794.47
2022-10-17T07:53:38.016Z,101811.63
2022-10-17T07:56:09.228Z,101844.28
2022-10-17T07:58:37.474Z,101877.50
2022-10-17T08:01:08.400Z,101896.47
2022-10-17T08:03:37.598Z,101901.53
2022-10-17T08:06:04.585Z,101912.22
2022-10-17T08:08:31.203Z,101916.38
2022-10-17T08:11:03.427Z,101913.59
2022-10-17T08:13:29.980Z,101912.31
2022-10-17T08:16:05.681Z,101894.72
2022-10-17T08:18:32.714Z,101888.19
2022-10-17T08:21:03.061Z,101885.28
2022-10-17T08:23:29.794Z,101884.81
2022-10-17T08:26:00.401Z,101890.75
2022-10-17T08:28:27.196Z,101885.50
2022-10-17T08:30:53.870Z,101890.00
2022-10-17T08:33:20.467Z,101892.47
2022-10-17T08:35:47.082Z,101920.16
2022-10-17T08:38:14.650Z,101931.63
2022-10-17T08:41:14.824Z,101951.88
2022-10-17T08:44:16.083Z,101988.47
2022-10-17T08:46:45.536Z,102001.72
2022-10-17T08:49:48.611Z,101985.56
2022-10-17T08:52:38.720Z,101975.56
2022-10-17T08:55:15.794Z,101968.00
2022-10-17T08:57:43.268Z,101954.09
2022-10-17T09:00:21.045Z,101933.16
2022-10-17T09:02:57.931Z,101912.50
2022-10-17T09:05:27.449Z,101917.13
2022-10-17T09:08:07.443Z,101899.19
2022-10-17T09:10:58.968Z,101898.31
2022-10-17T09:13:30.482Z,101907.16
2022-10-17T09:16:15.439Z,101895.16
2022-10-17T09:18:51.403Z,101888.34
2022-10-17T09:21:42.292Z,101898.97
2022-10-17T09:24:32.809Z,101906.59
2022-10-17T09:26:59.750Z,101905.16
2022-10-17T09:29:32.359Z,101931.03
2022-10-17T09:32:05.374Z,101955.06
2022-10-17T09:34:33.352Z,101981.44
2022-10-17T09:37:01.645Z,101982.44
2022-10-17T09:39:33.077Z,101964.84
2022-10-17T09:42:01.692Z,101932.03
2022-10-17T09:44:34.082Z,101917.78
2022-10-17T09:47:28.458Z,101926.97
2022-10-17T09:49:55.102Z,101909.31
2022-10-17T09:52:33.998Z,101906.13
2022-10-17T09:55:34.329Z,101904.09
2022-10-17T09:58:03.713Z,101916.22
2022-10-17T10:00:33.666Z,101920.03
2022-10-17T10:03:17.116Z,101933.28
2022-10-17T10:05:59.648Z,101932.34
2022-10-17T10:08:33.077Z,101938.84
2022-10-17T10:11:03.518Z,101955.88
2022-10-17T10:13:31.474Z,101959.41
2022-10-17T10:16:15.020Z,101964.47
2022-10-17T10:18:42.099Z,101975.44
2022-10-17T10:21:13.403Z,101986.81
2022-10-17T10:23:42.716Z,101993.44
2022-10-17T10:26:22.365Z,102007.84
2022-10-17T10:28:55.974Z,102021.72
2022-10-17T10:31:32.085Z,102015.72
2022-10-17T10:34:04.699Z,102018.34
2022-10-17T10:36:50.132Z,102027.59
2022-10-17T10:39:31.082Z,102036.75
2022-10-17T10:42:34.528Z,102038.47
2022-10-17T10:45:46.521Z,102048.22
2022-10-17T10:48:21.598Z,102046.25
2022-10-17T10:50:56.381Z,102050.50
2022-10-17T10:53:37.362Z,102062.19
2022-10-17T10:56:15.842Z,102056.66
2022-10-17T10:59:19.192Z,102062.59
2022-10-17T11:01:53.699Z,102068.81
2022-10-17T11:04:36.514Z,102066.31
2022-10-17T11:07:22.659Z,102062.53
2022-10-17T11:10:19.684Z,102068.06
2022-10-17T11:13:06.166Z,102071.06
2022-10-17T11:16:21.536Z,102074.03
2022-10-17T11:19:04.771Z,102082.38
2022-10-17T11:21:43.814Z,102090.00
2022-10-17T11:24:23.748Z,102085.31
2022-10-17T11:26:59.914Z,102092.44
2022-10-17T11:29:30.800Z,102087.78
2022-10-17T11:32:02.053Z,102098.44
2022-10-17T11:34:33.034Z,102099.22
2022-10-17T11:37:08.067Z,102101.69
2022-10-17T11:39:37.657Z,102100.94
2022-10-17T11:42:09.908Z,102109.09
2022-10-17T11:44:42.626Z,102110.97
2022-10-17T11:47:28.160Z,102116.44
2022-10-17T11:53:16.781Z,102124.72
2022-10-17T11:55:44.483Z,102114.69
2022-10-17T11:58:13.982Z,102113.16
2022-10-17T12:01:01.864Z,102113.72
2022-10-17T12:03:39.865Z,102115.00
2022-10-17T12:06:13.407Z,102109.75
2022-10-17T12:08:52.079Z,102107.22
2022-10-17T12:11:54.225Z,102109.47
2022-10-17T12:14:39.270Z,102121.69
2022-10-17T12:17:29.231Z,102119.31
2022-10-17T12:20:22.207Z,102121.69
2022-10-17T12:22:50.390Z,102123.50
2022-10-17T12:25:33.778Z,102112.63
2022-10-17T12:28:06.573Z,102117.41
2022-10-17T12:30:34.501Z,102120.88
2022-10-17T12:33:11.372Z,102118.56
2022-10-17T12:35:41.044Z,102119.00
2022-10-17T12:38:16.665Z,102132.94
2022-10-17T12:40:48.517Z,102139.63
2022-10-17T12:43:15.463Z,102132.16
2022-10-17T12:45:53.471Z,102136.41
2022-10-17T12:48:38.689Z,102148.38
2022-10-17T12:54:14.984Z,102147.22
2022-10-17T12:56:44.391Z,102149.19
2022-10-17T12:59:22.276Z,102154.75
2022-10-17T13:01:53.582Z,102157.72
2022-10-17T13:04:21.210Z,102159.63
2022-10-17T13:06:54.066Z,102157.38
2022-10-17T13:09:29.422Z,102161.91
2022-10-17T13:11:59.110Z,102159.50
2022-10-17T13:14:26.582Z,102165.34
2022-10-17T13:16:53.091Z,102179.19
2022-10-17T13:19:23.562Z,102177.41
2022-10-17T13:22:06.012Z,102190.72
2022-10-17T13:24:38.896Z,102188.78
2022-10-17T13:27:21.199Z,102186.34
2022-10-17T13:29:47.658Z,102193.88
2022-10-17T13:32:14.151Z,102202.56
2022-10-17T13:34:40.723Z,102215.00
2022-10-17T13:37:11.007Z,102217.00
2022-10-17T13:40:02.952Z,102218.34
2022-10-17T13:42:39.154Z,102216.28
2022-10-17T13:45:39.467Z,102218.13
2022-10-17T13:48:17.163Z,102225.72
2022-10-17T13:50:45.036Z,102235.03
2022-10-17T13:53:34.972Z,102235.44
2022-10-17T13:58:57.749Z,102254.91
2022-10-17T14:01:27.081Z,102247.47
2022-10-17T14:04:03.379Z,102246.94
2022-10-17T14:06:34.423Z,102247.78
2022-10-17T14:09:05.268Z,102243.69
2022-10-17T14:11:38.229Z,102240.72
2022-10-17T14:14:15.860Z,102250.53
2022-10-17T14:16:43.932Z,102249.09
2022-10-17T14:19:31.961Z,102240.75
2022-10-17T14:22:37.363Z,102240.53
2022-10-17T14:25:04.695Z,102250.69
2022-10-17T14:28:14.018Z,102237.91
2022-10-17T14:31:01.692Z,102246.16
2022-10-17T14:33:32.145Z,102232.63
2022-10-17T14:36:01.707Z,102224.41
2022-10-17T14:38:29.733Z,102219.88
2022-10-17T14:41:37.405Z,102235.34
2022-10-17T14:43:58.818Z,102238.44
2022-10-17T14:46:26.031Z,102241.25
2022-10-17T14:48:55.287Z,102237.06
2022-10-17T14:51:22.134Z,102247.63
2022-10-17T14:54:22.554Z,102244.91
2022-10-17T14:56:52.473Z,102246.03
2022-10-17T14:59:52.015Z,102248.97
2022-10-17T15:02:13.600Z,102262.13
2022-10-17T15:04:40.384Z,102254.22
2022-10-17T15:07:07.067Z,102267.09
2022-10-17T15:09:33.907Z,102251.59
2022-10-17T15:12:02.831Z,102267.34
2022-10-17T15:14:29.371Z,102273.38
2022-10-17T15:16:56.033Z,102275.22
2022-10-17T15:19:22.500Z,102277.88
2022-10-17T15:21:49.091Z,102284.97
2022-10-17T15:24:15.936Z,102283.84
2022-10-17T15:26:43.689Z,102289.31
2022-10-17T15:29:16.201Z,102288.22
2022-10-17T15:31:42.736Z,102281.88
2022-10-17T15:34:19.200Z,102289.06
2022-10-17T15:37:47.062Z,102291.00
2022-10-17T15:40:16.309Z,102300.72
2022-10-17T15:42:43.011Z,102290.09
2022-10-17T15:45:15.854Z,102302.44
2022-10-17T15:47:44.024Z,102306.25
2022-10-17T15:50:18.411Z,102311.16
2022-10-17T15:52:47.160Z,102321.63
2022-10-17T15:55:13.698Z,102329.50
2022-10-17T15:57:42.520Z,102332.03
2022-10-17T16:00:20.546Z,102338.97
2022-10-17T16:02:51.092Z,102337.19
2022-10-17T16:05:25.614Z,102331.97
2022-10-17T16:07:53.522Z,102341.88
2022-10-17T16:10:21.801Z,102348.09
2022-10-17T16:12:50.132Z,102342.09
2022-10-17T16:15:22.946Z,102347.53
2022-10-17T16:17:54.340Z,102346.50
2022-10-17T16:20:21.854Z,102351.44
2022-10-17T16:22:53.023Z,102355.13
2022-10-17T16:25:26.327Z,102368.19
2022-10-17T16:27:56.347Z,102369.56
2022-10-17T16:30:25.016Z,102372.97
2022-10-17T16:32:52.439Z,102373.03
2022-10-17T16:35:31.850Z,102375.31
2022-10-17T16:38:01.516Z,102380.00
2022-10-17T16:40:28.157Z,102378.41
2022-10-17T16:42:54.822Z,102383.94
2022-10-17T16:45:24.807Z,102376.72
2022-10-17T16:48:03.716Z,102381.63
2022-10-17T16:50:41.993Z,102373.25
2022-10-17T16:53:08.692Z,102380.00
2022-10-17T16:55:35.424Z,102388.19
2022-10-17T16:58:01.914Z,102394.13
2022-10-17T17:00:28.629Z,102392.19
2022-10-17T17:02:57.714Z,102399.38
2022-10-17T17:05:24.394Z,102402.38
2022-10-17T17:07:51.350Z,102405.50
2022-10-17T17:10:18.040Z,102401.94
2022-10-17T17:12:44.745Z,102409.91
2022-10-17T17:15:11.361Z,102405.59
2022-10-17T17:17:56.306Z,102410.78
2022-10-17T17:20:24.204Z,102408.91
2022-10-17T17:22:53.979Z,102411.78
2022-10-17T17:25:23.704Z,102412.13
2022-10-17T17:27:50.297Z,102408.22
2022-10-17T17:30:18.514Z,102405.06
2022-10-17T17:32:45.031Z,102407.06
2022-10-17T17:35:11.620Z,102401.16
2022-10-17T17:37:38.412Z,102409.91
2022-10-17T17:40:06.272Z,102409.16
2022-10-17T17:42:33.002Z,102419.72
2022-10-17T17:45:07.261Z,102423.06
2022-10-17T17:47:34.076Z,102412.09
2022-10-17T17:50:00.815Z,102414.88
2022-10-17T17:52:28.086Z,102413.75
2022-10-17T17:54:55.153Z,102422.84
2022-10-17T17:57:22.187Z,102423.88
2022-10-17T17:59:49.896Z,102420.84
2022-10-17T18:02:16.960Z,102430.09
2022-10-17T18:04:44.817Z,102428.63
2022-10-17T18:07:14.463Z,102437.84
2022-10-17T18:09:46.766Z,102437.53
2022-10-17T18:12:32.010Z,102439.53
2022-10-17T18:14:58.999Z,102450.84
2022-10-17T18:17:39.704Z,102451.06
2022-10-17T18:20:08.300Z,102463.31
2022-10-17T18:22:38.431Z,102462.19
2022-10-17T18:25:10.392Z,102455.84
2022-10-17T18:27:37.185Z,102461.69
2022-10-17T18:30:23.799Z,102466.06
2022-10-17T18:32:52.669Z,102461.13
2022-10-17T18:35:21.001Z,102462.56
2022-10-17T18:37:56.657Z,102458.94
2022-10-17T18:40:23.477Z,102458.75
2022-10-17T18:42:53.391Z,102451.63
2022-10-17T18:45:21.033Z,102452.94
2022-10-17T18:47:49.682Z,102468.91
2022-10-17T18:50:18.670Z,102474.16
2022-10-17T18:52:46.807Z,102479.94
2022-10-17T18:55:29.742Z,102479.28
2022-10-17T18:58:14.534Z,102478.00
2022-10-17T19:00:41.185Z,102477.69
2022-10-17T19:03:16.183Z,102482.69
2022-10-17T19:05:47.327Z,102479.28
2022-10-17T19:08:15.387Z,102485.78
2022-10-17T19:10:42.762Z,102483.56
2022-10-17T19:13:11.725Z,102490.78
2022-10-17T19:15:38.903Z,102479.84
2022-10-17T19:18:05.628Z,102478.50
2022-10-17T19:20:34.644Z,102491.88
2022-10-17T19:23:01.285Z,102486.19
2022-10-17T19:25:34.555Z,102493.31
2022-10-17T19:28:13.551Z,102493.81
2022-10-17T19:30:49.877Z,102499.59
2022-10-17T19:33:16.675Z,102502.22
2022-10-17T19:35:56.108Z,102501.78
2022-10-17T19:38:22.912Z,102507.78
2022-10-17T19:40:53.443Z,102501.75
2022-10-17T19:43:38.024Z,102499.28
2022-10-17T19:46:11.021Z,102499.47
2022-10-17T19:48:40.600Z,102490.19
2022-10-17T19:51:11.906Z,102496.66
2022-10-17T20:01:03.655Z,102493.38
2022-10-17T20:03:32.934Z,102498.50
2022-10-17T20:05:59.433Z,102506.91
2022-10-17T20:10:52.703Z,102523.47
2022-10-17T20:13:19.274Z,102528.97
2022-10-17T20:15:54.863Z,102538.34
2022-10-17T20:18:21.790Z,102531.19
2022-10-17T20:20:48.441Z,102544.84
2022-10-17T20:23:15.274Z,102545.16
2022-10-17T20:25:42.236Z,102548.09
2022-10-17T20:28:10.051Z,102548.28
2022-10-17T20:30:36.585Z,102546.75
2022-10-17T20:33:03.361Z,102545.22
2022-10-17T20:35:30.133Z,102560.06
2022-10-17T20:37:56.708Z,102558.53
2022-10-17T20:40:34.581Z,102554.44
2022-10-17T20:43:02.642Z,102554.13
2022-10-17T20:45:43.728Z,102559.69
2022-10-17T20:48:15.907Z,102570.03
2022-10-17T20:50:43.792Z,102577.97
2022-10-17T20:53:35.405Z,102581.38
2022-10-17T20:56:15.954Z,102584.75
2022-10-17T20:58:42.699Z,102587.88
2022-10-17T21:01:10.553Z,102594.75
2022-10-17T21:03:41.010Z,102593.34
2022-10-17T21:06:10.877Z,102586.56
2022-10-17T21:08:37.702Z,102592.56
2022-10-17T21:11:16.334Z,102596.78
2022-10-17T21:13:43.577Z,102599.41
2022-10-17T21:16:17.080Z,102604.84
2022-10-17T21:18:44.097Z,102610.16
2022-10-17T21:21:15.275Z,102610.28
2022-10-17T21:23:44.744Z,102613.78
2022-10-17T21:26:13.173Z,102614.09
2022-10-17T21:28:41.577Z,102618.56
2022-10-17T21:31:23.240Z,102610.41
2022-10-17T21:33:52.754Z,102605.69
2022-10-17T21:36:19.900Z,102601.38
2022-10-17T21:38:48.986Z,102601.13
2022-10-17T21:41:17.668Z,102598.69
2022-10-17T21:43:44.201Z,102600.16
2022-10-17T21:46:13.377Z,102601.81
2022-10-17T21:51:41.612Z,102606.06
2022-10-17T21:54:26.153Z,102612.09
2022-10-17T21:56:58.967Z,102612.38
2022-10-17T21:59:26.022Z,102609.94
2022-10-17T22:01:52.561Z,102606.53
2022-10-17T22:04:19.836Z,102606.38
2022-10-17T22:06:48.440Z,102604.22
2022-10-17T22:09:21.421Z,102609.00
2022-10-17T22:11:51.183Z,102615.78
2022-10-17T22:14:20.128Z,102607.31
2022-10-17T22:16:48.117Z,102607.31
2022-10-17T22:19:17.952Z,102614.25
2022-10-17T22:21:45.161Z,102609.19
2022-10-17T22:24:14.850Z,102620.63
2022-10-17T22:26:42.083Z,102620.63
2022-10-17T22:29:09.275Z,102627.25
2022-10-17T22:31:36.935Z,102636.47
2022-10-17T22:34:05.461Z,102627.25
2022-10-17T22:36:32.787Z,102635.28
2022-10-17T22:38:59.327Z,102627.09
2022-10-17T22:41:25.829Z,102625.31
2022-10-17T22:43:52.307Z,102625.56
2022-10-17T22:46:27.526Z,102632.25
2022-10-17T22:48:54.091Z,102628.22
2022-10-17T22:51:20.927Z,102625.66
2022-10-17T22:53:47.651Z,102633.38
2022-10-17T22:56:17.863Z,102632.75
2022-10-17T22:58:45.108Z,102630.75
2022-10-17T23:01:17.908Z,102624.28
2022-10-17T23:03:45.011Z,102629.81
2022-10-17T23:06:11.926Z,102622.44
2022-10-17T23:08:39.043Z,102638.94
2022-10-17T23:11:06.731Z,102630.94
2022-10-17T23:13:33.410Z,102635.41
2022-10-17T23:16:00.109Z,102632.94
2022-10-17T23:20:55.711Z,102633.72
2022-10-17T23:23:22.672Z,102641.13
2022-10-17T23:25:49.781Z,102641.91
2022-10-17T23:28:16.649Z,102652.38
2022-10-17T23:30:43.305Z,102656.84
2022-10-17T23:33:12.391Z,102648.03
2022-10-17T23:35:39.381Z,102637.25
2022-10-17T23:38:05.864Z,102640.94
2022-10-17T23:40:32.401Z,102641.78
2022-10-17T23:42:59.030Z,102634.97
2022-10-17T23:45:25.665Z,102634.06
2022-10-17T23:47:52.165Z,102639.59
2022-10-17T23:50:18.826Z,102629.91
2022-10-17T23:52:45.481Z,102628.34
2022-10-17T23:55:12.142Z,102626.50
2022-10-17T23:57:38.632Z,102631.44
